sensor_id;sensor_type;location;lat;lon;timestamp;noise_LAeq;noise_LA_min;noise_LA_max;noise_LA01;noise_LA95
49215;Laerm;45943;53.148;8.204;2023-04-01T00:00:57;41.78;37.51;61.83;;
49215;Laerm;45943;53.148;8.204;2023-04-01T00:03:25;41.05;37.72;57.17;;
49215;Laerm;45943;53.148;8.204;2023-04-01T00:05:55;50.70;36.26;69.47;;
49215;Laerm;45943;53.148;8.204;2023-04-01T00:08:22;40.68;36.80;57.44;;
49215;Laerm;45943;53.148;8.204;2023-04-01T00:10:48;40.51;37.05;53.80;;
49215;Laerm;45943;53.148;8.204;2023-04-01T00:13:14;40.49;36.80;52.49;;
49215;Laerm;45943;53.148;8.204;2023-04-01T00:15:41;52.81;37.51;72.76;;
49215;Laerm;45943;53.148;8.204;2023-04-01T00:18:07;41.07;37.05;50.59;;
49215;Laerm;45943;53.148;8.204;2023-04-01T00:20:34;40.51;36.80;48.27;;
49215;Laerm;45943;53.148;8.204;2023-04-01T00:23:00;47.11;37.29;64.99;;
49215;Laerm;45943;53.148;8.204;2023-04-01T00:25:26;40.30;36.26;48.92;;
49215;Laerm;45943;53.148;8.204;2023-04-01T00:27:52;40.58;36.54;57.04;;
49215;Laerm;45943;53.148;8.204;2023-04-01T00:30:18;40.42;36.80;49.84;;
49215;Laerm;45943;53.148;8.204;2023-04-01T00:32:44;40.86;37.51;55.42;;
49215;Laerm;45943;53.148;8.204;2023-04-01T00:35:11;41.73;37.92;53.67;;
49215;Laerm;45943;53.148;8.204;2023-04-01T00:37:38;47.95;37.72;66.73;;
49215;Laerm;45943;53.148;8.204;2023-04-01T00:40:11;41.64;37.92;56.02;;
49215;Laerm;45943;53.148;8.204;2023-04-01T00:42:46;52.13;37.05;74.91;;
49215;Laerm;45943;53.148;8.204;2023-04-01T00:45:26;43.57;38.30;55.16;;
49215;Laerm;45943;53.148;8.204;2023-04-01T00:47:53;42.47;38.97;60.39;;
49215;Laerm;45943;53.148;8.204;2023-04-01T00:50:21;41.11;37.92;50.32;;
49215;Laerm;45943;53.148;8.204;2023-04-01T00:52:48;41.46;37.92;53.05;;
49215;Laerm;45943;53.148;8.204;2023-04-01T00:55:14;41.17;37.51;58.65;;
49215;Laerm;45943;53.148;8.204;2023-04-01T00:57:43;42.00;37.92;58.32;;
49215;Laerm;45943;53.148;8.204;2023-04-01T01:00:12;62.67;37.92;74.18;;
49215;Laerm;45943;53.148;8.204;2023-04-01T01:02:41;42.29;38.12;53.74;;
49215;Laerm;45943;53.148;8.204;2023-04-01T01:05:13;40.96;37.05;55.02;;
49215;Laerm;45943;53.148;8.204;2023-04-01T01:07:51;40.88;37.29;54.15;;
49215;Laerm;45943;53.148;8.204;2023-04-01T01:10:30;52.46;36.80;74.63;;
49215;Laerm;45943;53.148;8.204;2023-04-01T01:13:22;40.48;36.80;52.83;;
49215;Laerm;45943;53.148;8.204;2023-04-01T01:24:51;40.31;36.54;56.57;;
49215;Laerm;45943;53.148;8.204;2023-04-01T01:27:22;40.96;36.54;61.05;;
49215;Laerm;45943;53.148;8.204;2023-04-01T01:35:38;40.57;37.05;51.41;;
49215;Laerm;45943;53.148;8.204;2023-04-01T01:38:15;40.58;36.54;55.93;;
49215;Laerm;45943;53.148;8.204;2023-04-01T01:40:45;41.74;36.54;54.19;;
49215;Laerm;45943;53.148;8.204;2023-04-01T01:43:18;59.14;37.05;74.43;;
49215;Laerm;45943;53.148;8.204;2023-04-01T01:45:53;43.24;37.72;60.81;;
49215;Laerm;45943;53.148;8.204;2023-04-01T01:48:21;40.47;37.05;60.53;;
49215;Laerm;45943;53.148;8.204;2023-04-01T01:50:49;40.66;36.80;59.81;;
49215;Laerm;45943;53.148;8.204;2023-04-01T01:53:16;40.53;36.54;48.96;;
49215;Laerm;45943;53.148;8.204;2023-04-01T01:55:46;40.30;35.96;52.02;;
49215;Laerm;45943;53.148;8.204;2023-04-01T01:58:17;40.53;36.80;53.92;;
49215;Laerm;45943;53.148;8.204;2023-04-01T02:00:50;40.05;36.26;48.97;;
49215;Laerm;45943;53.148;8.204;2023-04-01T02:03:17;40.69;35.96;55.86;;
49215;Laerm;45943;53.148;8.204;2023-04-01T02:05:45;40.24;35.96;48.46;;
49215;Laerm;45943;53.148;8.204;2023-04-01T02:08:18;40.55;35.96;50.61;;
49215;Laerm;45943;53.148;8.204;2023-04-01T02:10:55;40.46;36.54;48.75;;
49215;Laerm;45943;53.148;8.204;2023-04-01T02:13:29;40.36;36.70;46.73;;
49215;Laerm;45943;53.148;8.204;2023-04-01T02:15:59;54.54;37.37;76.33;;
49215;Laerm;45943;53.148;8.204;2023-04-01T02:18:29;41.08;37.29;49.70;;
49215;Laerm;45943;53.148;8.204;2023-04-01T02:20:57;40.92;37.51;52.37;;
49215;Laerm;45943;53.148;8.204;2023-04-01T02:23:24;42.05;36.80;56.08;;
49215;Laerm;45943;53.148;8.204;2023-04-01T02:25:51;40.57;36.54;53.38;;
49215;Laerm;45943;53.148;8.204;2023-04-01T02:28:18;41.81;36.54;56.29;;
49215;Laerm;45943;53.148;8.204;2023-04-01T02:30:48;40.04;36.26;47.33;;
49215;Laerm;45943;53.148;8.204;2023-04-01T02:33:16;40.63;37.29;46.08;;
49215;Laerm;45943;53.148;8.204;2023-04-01T02:35:43;40.67;35.96;49.72;;
49215;Laerm;45943;53.148;8.204;2023-04-01T02:38:09;41.04;36.26;52.30;;
49215;Laerm;45943;53.148;8.204;2023-04-01T02:41:01;40.47;36.26;48.34;;
49215;Laerm;45943;53.148;8.204;2023-04-01T02:43:28;40.44;36.80;54.59;;
49215;Laerm;45943;53.148;8.204;2023-04-01T02:45:54;40.27;36.80;47.96;;
49215;Laerm;45943;53.148;8.204;2023-04-01T02:48:20;40.67;37.29;47.26;;
49215;Laerm;45943;53.148;8.204;2023-04-01T02:50:46;53.77;37.77;72.56;;
49215;Laerm;45943;53.148;8.204;2023-04-01T02:53:12;41.30;36.54;52.98;;
49215;Laerm;45943;53.148;8.204;2023-04-01T02:55:38;41.71;36.54;53.20;;
49215;Laerm;45943;53.148;8.204;2023-04-01T02:58:04;43.04;37.72;58.75;;
49215;Laerm;45943;53.148;8.204;2023-04-01T03:00:30;42.68;36.26;55.44;;
49215;Laerm;45943;53.148;8.204;2023-04-01T03:02:56;43.23;37.72;58.22;;
49215;Laerm;45943;53.148;8.204;2023-04-01T03:05:22;43.46;37.05;58.28;;
49215;Laerm;45943;53.148;8.204;2023-04-01T03:07:48;43.49;37.77;57.28;;
49215;Laerm;45943;53.148;8.204;2023-04-01T03:10:15;43.77;37.92;58.75;;
49215;Laerm;45943;53.148;8.204;2023-04-01T03:12:41;51.95;37.92;70.86;;
49215;Laerm;45943;53.148;8.204;2023-04-01T03:15:10;43.39;37.29;55.83;;
49215;Laerm;45943;53.148;8.204;2023-04-01T03:17:38;43.71;37.51;62.26;;
49215;Laerm;45943;53.148;8.204;2023-04-01T03:20:04;51.94;38.12;69.08;;
49215;Laerm;45943;53.148;8.204;2023-04-01T03:22:31;52.18;37.29;72.46;;
49215;Laerm;45943;53.148;8.204;2023-04-01T03:24:56;44.06;36.80;61.74;;
49215;Laerm;45943;53.148;8.204;2023-04-01T03:27:22;50.63;37.72;67.56;;
49215;Laerm;45943;53.148;8.204;2023-04-01T03:29:49;44.45;38.30;58.43;;
49215;Laerm;45943;53.148;8.204;2023-04-01T03:32:15;44.98;38.12;65.22;;
49215;Laerm;45943;53.148;8.204;2023-04-01T03:34:41;52.11;37.72;73.49;;
49215;Laerm;45943;53.148;8.204;2023-04-01T03:37:07;44.51;38.81;54.24;;
49215;Laerm;45943;53.148;8.204;2023-04-01T03:39:33;43.95;38.81;57.62;;
49215;Laerm;45943;53.148;8.204;2023-04-01T03:41:59;56.90;39.27;72.66;;
49215;Laerm;45943;53.148;8.204;2023-04-01T03:44:25;43.83;37.77;59.25;;
49215;Laerm;45943;53.148;8.204;2023-04-01T03:46:51;43.60;37.92;57.86;;
49215;Laerm;45943;53.148;8.204;2023-04-01T03:49:17;44.78;37.92;59.49;;
49215;Laerm;45943;53.148;8.204;2023-04-01T03:51:44;45.89;38.30;64.71;;
49215;Laerm;45943;53.148;8.204;2023-04-01T03:54:10;45.84;38.65;60.41;;
49215;Laerm;45943;53.148;8.204;2023-04-01T03:56:37;48.59;38.65;61.81;;
49215;Laerm;45943;53.148;8.204;2023-04-01T03:59:05;52.22;37.92;69.55;;
49215;Laerm;45943;53.148;8.204;2023-04-01T04:01:31;49.53;39.55;61.05;;
49215;Laerm;45943;53.148;8.204;2023-04-01T04:03:57;49.65;38.81;61.88;;
49215;Laerm;45943;53.148;8.204;2023-04-01T04:06:24;50.16;39.94;62.21;;
49215;Laerm;45943;53.148;8.204;2023-04-01T04:08:50;49.28;38.97;61.79;;
49215;Laerm;45943;53.148;8.204;2023-04-01T04:11:18;48.88;39.41;62.57;;
49215;Laerm;45943;53.148;8.204;2023-04-01T04:13:44;48.33;40.18;62.06;;
49215;Laerm;45943;53.148;8.204;2023-04-01T04:16:10;51.76;39.41;66.32;;
49215;Laerm;45943;53.148;8.204;2023-04-01T04:18:37;50.26;40.73;63.75;;
49215;Laerm;45943;53.148;8.204;2023-04-01T04:21:03;58.29;40.41;73.49;;
49215;Laerm;45943;53.148;8.204;2023-04-01T04:23:29;51.99;40.83;64.67;;
49215;Laerm;45943;53.148;8.204;2023-04-01T04:25:58;55.22;40.93;68.83;;
49215;Laerm;45943;53.148;8.204;2023-04-01T04:28:26;51.59;40.18;63.46;;
49215;Laerm;45943;53.148;8.204;2023-04-01T04:30:54;53.89;40.52;65.71;;
49215;Laerm;45943;53.148;8.204;2023-04-01T04:33:21;54.48;41.49;71.05;;
49215;Laerm;45943;53.148;8.204;2023-04-01T04:35:47;52.22;40.52;65.32;;
49215;Laerm;45943;53.148;8.204;2023-04-01T04:38:13;54.77;40.06;72.28;;
49215;Laerm;45943;53.148;8.204;2023-04-01T04:40:40;57.83;40.93;72.44;;
49215;Laerm;45943;53.148;8.204;2023-04-01T04:43:07;48.97;38.30;71.74;;
49215;Laerm;45943;53.148;8.204;2023-04-01T04:45:35;55.49;40.41;77.70;;
49215;Laerm;45943;53.148;8.204;2023-04-01T04:48:01;52.56;38.97;68.52;;
49215;Laerm;45943;53.148;8.204;2023-04-01T04:50:27;54.15;38.81;75.09;;
49215;Laerm;45943;53.148;8.204;2023-04-01T04:52:53;46.06;37.51;59.52;;
49215;Laerm;45943;53.148;8.204;2023-04-01T04:55:20;56.13;39.12;75.71;;
49215;Laerm;45943;53.148;8.204;2023-04-01T04:57:46;49.30;39.12;67.72;;
49215;Laerm;45943;53.148;8.204;2023-04-01T05:00:12;54.25;39.27;71.72;;
49215;Laerm;45943;53.148;8.204;2023-04-01T05:02:38;49.87;38.65;68.57;;
49215;Laerm;45943;53.148;8.204;2023-04-01T05:05:04;46.11;39.27;62.28;;
49215;Laerm;45943;53.148;8.204;2023-04-01T05:07:31;52.79;39.41;68.71;;
49215;Laerm;45943;53.148;8.204;2023-04-01T05:09:57;50.45;38.97;71.48;;
49215;Laerm;45943;53.148;8.204;2023-04-01T05:12:23;50.05;39.55;64.39;;
49215;Laerm;45943;53.148;8.204;2023-04-01T05:14:48;55.04;39.27;72.50;;
49215;Laerm;45943;53.148;8.204;2023-04-01T05:17:14;52.58;38.97;71.59;;
49215;Laerm;45943;53.148;8.204;2023-04-01T05:19:40;53.13;39.41;70.72;;
49215;Laerm;45943;53.148;8.204;2023-04-01T05:22:06;54.25;39.27;72.18;;
49215;Laerm;45943;53.148;8.204;2023-04-01T05:24:33;57.92;40.30;77.17;;
49215;Laerm;45943;53.148;8.204;2023-04-01T05:26:59;54.83;38.97;71.54;;
49215;Laerm;45943;53.148;8.204;2023-04-01T05:29:25;50.98;38.48;68.55;;
49215;Laerm;45943;53.148;8.204;2023-04-01T05:31:52;49.73;38.30;70.39;;
49215;Laerm;45943;53.148;8.204;2023-04-01T05:34:18;43.31;38.48;58.52;;
49215;Laerm;45943;53.148;8.204;2023-04-01T05:36:45;50.56;39.55;69.47;;
49215;Laerm;45943;53.148;8.204;2023-04-01T05:39:11;53.97;38.65;69.80;;
49215;Laerm;45943;53.148;8.204;2023-04-01T05:41:38;53.77;38.81;75.46;;
49215;Laerm;45943;53.148;8.204;2023-04-01T05:44:04;52.36;38.48;68.03;;
49215;Laerm;45943;53.148;8.204;2023-04-01T05:46:31;52.54;40.06;71.05;;
49215;Laerm;45943;53.148;8.204;2023-04-01T05:48:57;55.87;39.68;76.90;;
49215;Laerm;45943;53.148;8.204;2023-04-01T05:51:23;54.51;38.97;70.50;;
49215;Laerm;45943;53.148;8.204;2023-04-01T05:53:49;54.77;39.27;73.82;;
49215;Laerm;45943;53.148;8.204;2023-04-01T05:56:15;50.57;39.94;61.61;;
49215;Laerm;45943;53.148;8.204;2023-04-01T05:58:41;54.84;40.63;70.12;;
49215;Laerm;45943;53.148;8.204;2023-04-01T06:01:10;51.06;38.12;68.18;;
49215;Laerm;45943;53.148;8.204;2023-04-01T06:03:36;52.34;38.78;68.49;;
49215;Laerm;45943;53.148;8.204;2023-04-01T06:06:03;51.83;38.65;70.60;;
49215;Laerm;45943;53.148;8.204;2023-04-01T06:08:31;51.65;39.27;70.36;;
49215;Laerm;45943;53.148;8.204;2023-04-01T06:11:01;55.83;39.27;70.18;;
49215;Laerm;45943;53.148;8.204;2023-04-01T06:16:49;48.89;38.65;68.17;;
49215;Laerm;45943;53.148;8.204;2023-04-01T06:25:29;56.69;40.06;71.16;;
49215;Laerm;45943;53.148;8.204;2023-04-01T06:30:35;54.19;39.41;70.98;;
49215;Laerm;45943;53.148;8.204;2023-04-01T06:33:35;45.93;40.06;63.72;;
49215;Laerm;45943;53.148;8.204;2023-04-01T06:36:30;50.74;39.12;66.65;;
49215;Laerm;45943;53.148;8.204;2023-04-01T06:39:06;56.82;39.55;72.24;;
49215;Laerm;45943;53.148;8.204;2023-04-01T06:50:07;50.30;39.12;72.64;;
49215;Laerm;45943;53.148;8.204;2023-04-01T06:52:49;49.45;37.92;67.48;;
49215;Laerm;45943;53.148;8.204;2023-04-01T06:55:27;53.63;40.18;72.24;;
49215;Laerm;45943;53.148;8.204;2023-04-01T06:58:00;55.03;39.81;69.44;;
49215;Laerm;45943;53.148;8.204;2023-04-01T07:00:35;54.04;39.68;77.35;;
49215;Laerm;45943;53.148;8.204;2023-04-01T07:05:33;52.49;38.97;67.87;;
49215;Laerm;45943;53.148;8.204;2023-04-01T07:08:03;51.79;39.94;68.73;;
49215;Laerm;45943;53.148;8.204;2023-04-01T07:11:03;52.24;38.48;69.35;;
49215;Laerm;45943;53.148;8.204;2023-04-01T07:16:36;57.77;40.18;85.29;;
49215;Laerm;45943;53.148;8.204;2023-04-01T07:19:16;54.09;40.06;68.27;;
49215;Laerm;45943;53.148;8.204;2023-04-01T07:21:48;56.78;41.03;72.19;;
49215;Laerm;45943;53.148;8.204;2023-04-01T07:24:21;54.06;38.92;69.91;;
49215;Laerm;45943;53.148;8.204;2023-04-01T07:26:53;43.37;39.81;53.45;;
49215;Laerm;45943;53.148;8.204;2023-04-01T07:29:20;54.87;40.18;73.19;;
49215;Laerm;45943;53.148;8.204;2023-04-01T07:34:27;54.91;38.92;71.28;;
49215;Laerm;45943;53.148;8.204;2023-04-01T07:37:00;52.57;40.83;69.54;;
49215;Laerm;45943;53.148;8.204;2023-04-01T07:42:34;58.80;40.18;76.07;;
49215;Laerm;45943;53.148;8.204;2023-04-01T07:45:16;55.32;40.30;68.35;;
49215;Laerm;45943;53.148;8.204;2023-04-01T07:47:59;62.62;40.63;76.24;;
49215;Laerm;45943;53.148;8.204;2023-04-01T07:50:35;52.83;39.27;67.79;;
49215;Laerm;45943;53.148;8.204;2023-04-01T07:53:17;53.81;40.06;68.91;;
49215;Laerm;45943;53.148;8.204;2023-04-01T07:58:49;54.90;39.81;74.52;;
49215;Laerm;45943;53.148;8.204;2023-04-01T08:01:59;54.09;40.63;72.55;;
49215;Laerm;45943;53.148;8.204;2023-04-01T08:07:13;55.26;40.52;72.06;;
49215;Laerm;45943;53.148;8.204;2023-04-01T08:15:12;50.02;39.94;65.37;;
49215;Laerm;45943;53.148;8.204;2023-04-01T08:20:41;57.57;40.93;71.67;;
49215;Laerm;45943;53.148;8.204;2023-04-01T08:23:22;56.00;40.83;70.81;;
49215;Laerm;45943;53.148;8.204;2023-04-01T08:28:44;52.85;39.12;70.16;;
49215;Laerm;45943;53.148;8.204;2023-04-01T08:31:16;54.40;39.12;68.84;;
49215;Laerm;45943;53.148;8.204;2023-04-01T08:33:46;52.15;39.12;67.94;;
49215;Laerm;45943;53.148;8.204;2023-04-01T08:36:20;52.55;40.83;68.03;;
49215;Laerm;45943;53.148;8.204;2023-04-01T08:38:57;55.66;41.39;72.73;;
49215;Laerm;45943;53.148;8.204;2023-04-01T08:42:03;58.31;40.30;74.06;;
49215;Laerm;45943;53.148;8.204;2023-04-01T08:53:43;54.41;41.22;69.40;;
49215;Laerm;45943;53.148;8.204;2023-04-01T08:56:36;54.82;40.41;72.46;;
49215;Laerm;45943;53.148;8.204;2023-04-01T09:02:56;50.98;39.94;69.04;;
49215;Laerm;45943;53.148;8.204;2023-04-01T09:18:24;55.65;39.27;73.54;;
49215;Laerm;45943;53.148;8.204;2023-04-01T09:27:11;55.51;41.40;67.66;;
49215;Laerm;45943;53.148;8.204;2023-04-01T09:29:55;57.58;40.73;72.56;;
49215;Laerm;45943;53.148;8.204;2023-04-01T09:40:16;57.93;41.22;71.24;;
49215;Laerm;45943;53.148;8.204;2023-04-01T09:50:42;53.32;41.58;68.59;;
49215;Laerm;45943;53.148;8.204;2023-04-01T09:53:24;53.84;41.66;68.21;;
49215;Laerm;45943;53.148;8.204;2023-04-01T09:56:13;53.63;41.22;68.47;;
49215;Laerm;45943;53.148;8.204;2023-04-01T10:00:03;55.25;41.49;71.67;;
49215;Laerm;45943;53.148;8.204;2023-04-01T10:04:59;51.84;42.13;68.16;;
49215;Laerm;45943;53.148;8.204;2023-04-01T10:08:02;56.71;42.49;71.60;;
49215;Laerm;45943;53.148;8.204;2023-04-01T10:14:01;58.59;42.35;74.65;;
49215;Laerm;45943;53.148;8.204;2023-04-01T10:28:16;52.40;43.13;65.71;;
49215;Laerm;45943;53.148;8.204;2023-04-01T11:07:10;52.49;42.56;67.27;;
49215;Laerm;45943;53.148;8.204;2023-04-01T11:15:26;53.73;42.42;67.70;;
49215;Laerm;45943;53.148;8.204;2023-04-01T11:32:06;52.81;42.21;70.30;;
49215;Laerm;45943;53.148;8.204;2023-04-01T11:37:59;55.56;43.25;69.54;;
49215;Laerm;45943;53.148;8.204;2023-04-01T11:41:00;52.55;42.42;68.52;;
49215;Laerm;45943;53.148;8.204;2023-04-01T11:43:47;55.46;42.82;71.94;;
49215;Laerm;45943;53.148;8.204;2023-04-01T11:46:25;57.82;43.13;77.08;;
49215;Laerm;45943;53.148;8.204;2023-04-01T11:52:33;49.47;41.82;68.36;;
49215;Laerm;45943;53.148;8.204;2023-04-01T12:08:53;56.48;42.21;71.08;;
49215;Laerm;45943;53.148;8.204;2023-04-01T12:11:59;57.44;44.37;72.28;;
49215;Laerm;45943;53.148;8.204;2023-04-01T12:14:43;56.45;42.90;72.46;;
49215;Laerm;45943;53.148;8.204;2023-04-01T12:30:51;54.52;43.36;71.21;;
49215;Laerm;45943;53.148;8.204;2023-04-01T12:36:37;55.28;43.13;71.61;;
49215;Laerm;45943;53.148;8.204;2023-04-01T12:45:23;57.03;43.42;73.15;;
49215;Laerm;45943;53.148;8.204;2023-04-01T12:48:11;58.86;42.95;73.35;;
49215;Laerm;45943;53.148;8.204;2023-04-01T12:56:02;60.91;44.09;80.52;;
49215;Laerm;45943;53.148;8.204;2023-04-01T13:13:05;56.36;42.13;69.27;;
49215;Laerm;45943;53.148;8.204;2023-04-01T13:16:24;54.41;42.69;67.33;;
49215;Laerm;45943;53.148;8.204;2023-04-01T13:21:35;57.98;42.76;71.85;;
49215;Laerm;45943;53.148;8.204;2023-04-01T13:29:41;54.34;42.35;73.30;;
49215;Laerm;45943;53.148;8.204;2023-04-01T13:43:37;54.79;42.28;69.06;;
49215;Laerm;45943;53.148;8.204;2023-04-01T13:46:16;57.66;42.49;71.79;;
49215;Laerm;45943;53.148;8.204;2023-04-01T13:57:33;52.19;42.69;71.70;;
49215;Laerm;45943;53.148;8.204;2023-04-01T14:00:23;49.85;42.82;67.50;;
49215;Laerm;45943;53.148;8.204;2023-04-01T14:03:00;60.53;44.59;72.29;;
49215;Laerm;45943;53.148;8.204;2023-04-01T14:05:51;54.02;42.42;71.46;;
49215;Laerm;45943;53.148;8.204;2023-04-01T14:08:42;54.78;42.42;71.23;;
49215;Laerm;45943;53.148;8.204;2023-04-01T14:14:21;57.32;42.63;71.03;;
49215;Laerm;45943;53.148;8.204;2023-04-01T14:27:52;56.06;43.19;69.76;;
49215;Laerm;45943;53.148;8.204;2023-04-01T14:33:23;59.60;43.13;77.26;;
49215;Laerm;45943;53.148;8.204;2023-04-01T14:36:15;48.94;41.74;69.96;;
49215;Laerm;45943;53.148;8.204;2023-04-01T14:41:21;52.16;41.90;68.29;;
49215;Laerm;45943;53.148;8.204;2023-04-01T14:50:21;52.99;43.25;68.48;;
49215;Laerm;45943;53.148;8.204;2023-04-01T14:53:11;53.61;42.95;70.21;;
49215;Laerm;45943;53.148;8.204;2023-04-01T14:58:09;54.22;42.95;70.37;;
49215;Laerm;45943;53.148;8.204;2023-04-01T15:03:40;50.37;41.82;69.39;;
49215;Laerm;45943;53.148;8.204;2023-04-01T15:12:06;55.10;42.69;71.63;;
49215;Laerm;45943;53.148;8.204;2023-04-01T15:23:34;53.07;42.49;69.47;;
49215;Laerm;45943;53.148;8.204;2023-04-01T15:26:13;56.88;43.01;71.16;;
49215;Laerm;45943;53.148;8.204;2023-04-01T15:29:14;52.68;41.86;69.34;;
49215;Laerm;45943;53.148;8.204;2023-04-01T15:31:59;53.61;42.76;70.33;;
49215;Laerm;45943;53.148;8.204;2023-04-01T15:40:59;59.24;42.76;73.91;;
49215;Laerm;45943;53.148;8.204;2023-04-01T15:45:54;56.17;42.95;76.66;;
49215;Laerm;45943;53.148;8.204;2023-04-01T15:51:15;50.28;44.09;65.36;;
49215;Laerm;45943;53.148;8.204;2023-04-01T15:59:20;54.19;42.89;69.08;;
49215;Laerm;45943;53.148;8.204;2023-04-01T16:10:51;53.68;43.13;72.29;;
49215;Laerm;45943;53.148;8.204;2023-04-01T16:18:59;54.47;42.42;69.61;;
49215;Laerm;45943;53.148;8.204;2023-04-01T16:21:41;57.14;42.42;73.48;;
49215;Laerm;45943;53.148;8.204;2023-04-01T16:24:17;55.88;43.19;70.18;;
49215;Laerm;45943;53.148;8.204;2023-04-01T16:27:04;48.06;42.21;64.64;;
49215;Laerm;45943;53.148;8.204;2023-04-01T16:29:45;50.70;42.06;68.33;;
49215;Laerm;45943;53.148;8.204;2023-04-01T16:35:10;53.68;42.56;69.32;;
49215;Laerm;45943;53.148;8.204;2023-04-01T16:37:46;55.57;41.98;71.14;;
49215;Laerm;45943;53.148;8.204;2023-04-01T16:40:39;60.21;43.13;75.38;;
49215;Laerm;45943;53.148;8.204;2023-04-01T16:43:16;52.24;42.21;65.44;;
49215;Laerm;45943;53.148;8.204;2023-04-01T16:45:54;55.13;40.93;68.56;;
49215;Laerm;45943;53.148;8.204;2023-04-01T16:48:35;53.17;42.35;67.52;;
49215;Laerm;45943;53.148;8.204;2023-04-01T16:51:15;56.18;41.90;69.08;;
49215;Laerm;45943;53.148;8.204;2023-04-01T16:53:45;44.13;41.66;53.76;;
49215;Laerm;45943;53.148;8.204;2023-04-01T16:56:14;51.00;41.49;68.80;;
49215;Laerm;45943;53.148;8.204;2023-04-01T17:01:27;51.12;41.13;66.71;;
49215;Laerm;45943;53.148;8.204;2023-04-01T17:04:04;53.85;43.19;69.22;;
49215;Laerm;45943;53.148;8.204;2023-04-01T17:06:44;55.37;42.82;70.85;;
49215;Laerm;45943;53.148;8.204;2023-04-01T17:12:55;50.79;41.82;70.74;;
49215;Laerm;45943;53.148;8.204;2023-04-01T17:15:31;52.57;40.52;69.56;;
49215;Laerm;45943;53.148;8.204;2023-04-01T17:20:58;54.68;42.21;71.77;;
49215;Laerm;45943;53.148;8.204;2023-04-01T17:23:39;51.59;41.82;67.74;;
49215;Laerm;45943;53.148;8.204;2023-04-01T17:26:16;63.85;43.34;78.67;;
49215;Laerm;45943;53.148;8.204;2023-04-01T17:31:42;53.01;41.82;67.69;;
49215;Laerm;45943;53.148;8.204;2023-04-01T17:34:24;56.30;41.66;70.74;;
49215;Laerm;45943;53.148;8.204;2023-04-01T17:37:23;48.87;41.66;66.09;;
49215;Laerm;45943;53.148;8.204;2023-04-01T17:39:58;57.70;41.98;71.06;;
49215;Laerm;45943;53.148;8.204;2023-04-01T17:42:40;53.99;41.58;70.29;;
49215;Laerm;45943;53.148;8.204;2023-04-01T17:45:27;52.34;42.35;69.00;;
49215;Laerm;45943;53.148;8.204;2023-04-01T17:48:20;51.71;41.49;69.53;;
49215;Laerm;45943;53.148;8.204;2023-04-01T17:56:57;53.26;41.13;71.59;;
49215;Laerm;45943;53.148;8.204;2023-04-01T17:59:38;51.39;40.93;68.26;;
49215;Laerm;45943;53.148;8.204;2023-04-01T18:02:31;53.74;41.13;73.17;;
49215;Laerm;45943;53.148;8.204;2023-04-01T18:08:15;52.55;40.83;70.34;;
49215;Laerm;45943;53.148;8.204;2023-04-01T18:10:57;53.71;41.40;71.20;;
49215;Laerm;45943;53.148;8.204;2023-04-01T18:16:28;51.06;41.22;69.49;;
49215;Laerm;45943;53.148;8.204;2023-04-01T18:19:24;54.29;40.93;70.17;;
49215;Laerm;45943;53.148;8.204;2023-04-01T18:22:19;50.79;41.03;65.24;;
49215;Laerm;45943;53.148;8.204;2023-04-01T18:27:48;48.17;40.73;66.88;;
49215;Laerm;45943;53.148;8.204;2023-04-01T18:30:26;50.95;40.63;67.76;;
49215;Laerm;45943;53.148;8.204;2023-04-01T18:33:02;49.40;40.73;64.97;;
49215;Laerm;45943;53.148;8.204;2023-04-01T18:38:46;52.85;39.41;69.03;;
49215;Laerm;45943;53.148;8.204;2023-04-01T18:41:21;58.23;40.93;65.31;;
49215;Laerm;45943;53.148;8.204;2023-04-01T18:43:57;60.61;56.01;75.44;;
49215;Laerm;45943;53.148;8.204;2023-04-01T18:49:29;50.27;41.90;65.60;;
49215;Laerm;45943;53.148;8.204;2023-04-01T18:52:07;48.84;40.73;66.37;;
49215;Laerm;45943;53.148;8.204;2023-04-01T18:54:45;51.45;40.41;66.87;;
49215;Laerm;45943;53.148;8.204;2023-04-01T18:57:16;44.20;40.83;55.51;;
49215;Laerm;45943;53.148;8.204;2023-04-01T18:59:51;56.80;39.55;71.41;;
49215;Laerm;45943;53.148;8.204;2023-04-01T19:02:34;65.93;43.13;78.21;;
49215;Laerm;45943;53.148;8.204;2023-04-01T19:05:14;47.32;40.52;65.55;;
49215;Laerm;45943;53.148;8.204;2023-04-01T19:08:14;49.37;39.94;66.65;;
49215;Laerm;45943;53.148;8.204;2023-04-01T19:10:48;49.40;41.31;67.47;;
49215;Laerm;45943;53.148;8.204;2023-04-01T19:13:31;42.99;40.63;51.43;;
49215;Laerm;45943;53.148;8.204;2023-04-01T19:18:53;48.52;41.13;65.65;;
49215;Laerm;45943;53.148;8.204;2023-04-01T19:21:33;52.27;39.94;68.86;;
49215;Laerm;45943;53.148;8.204;2023-04-01T19:32:36;50.33;38.97;65.76;;
49215;Laerm;45943;53.148;8.204;2023-04-01T19:37:44;51.72;40.63;68.12;;
49215;Laerm;45943;53.148;8.204;2023-04-01T19:40:55;54.12;40.52;70.35;;
49215;Laerm;45943;53.148;8.204;2023-04-01T19:51:39;46.00;39.94;61.32;;
49215;Laerm;45943;53.148;8.204;2023-04-01T19:54:28;49.61;40.06;68.80;;
49215;Laerm;45943;53.148;8.204;2023-04-01T20:02:42;57.41;40.06;81.03;;
49215;Laerm;45943;53.148;8.204;2023-04-01T20:06:06;45.65;40.18;61.45;;
49215;Laerm;45943;53.148;8.204;2023-04-01T20:08:21;43.18;39.27;51.24;;
49215;Laerm;45943;53.148;8.204;2023-04-01T20:10:56;53.40;40.93;70.40;;
49215;Laerm;45943;53.148;8.204;2023-04-01T20:16:18;51.81;39.94;68.59;;
49215;Laerm;45943;53.148;8.204;2023-04-01T20:18:49;49.75;40.83;68.45;;
49215;Laerm;45943;53.148;8.204;2023-04-01T20:21:28;42.76;39.81;48.44;;
49215;Laerm;45943;53.148;8.204;2023-04-01T20:24:06;55.26;40.52;68.14;;
49215;Laerm;45943;53.148;8.204;2023-04-01T20:26:43;45.66;39.12;65.13;;
49215;Laerm;45943;53.148;8.204;2023-04-01T20:32:10;43.17;39.41;52.76;;
49215;Laerm;45943;53.148;8.204;2023-04-01T20:35:06;43.70;40.06;56.83;;
49215;Laerm;45943;53.148;8.204;2023-04-01T20:37:48;50.32;38.97;67.71;;
49215;Laerm;45943;53.148;8.204;2023-04-01T20:40:41;58.55;40.41;78.38;;
49215;Laerm;45943;53.148;8.204;2023-04-01T20:46:23;55.28;39.94;72.09;;
49215;Laerm;45943;53.148;8.204;2023-04-01T20:51:23;49.66;40.18;64.24;;
49215;Laerm;45943;53.148;8.204;2023-04-01T20:54:12;50.19;37.92;67.50;;
49215;Laerm;45943;53.148;8.204;2023-04-01T20:57:06;53.48;39.81;71.53;;
49215;Laerm;45943;53.148;8.204;2023-04-01T20:59:37;49.36;41.03;68.33;;
49215;Laerm;45943;53.148;8.204;2023-04-01T21:05:16;48.66;38.81;67.47;;
49215;Laerm;45943;53.148;8.204;2023-04-01T21:07:59;43.08;39.81;50.24;;
49215;Laerm;45943;53.148;8.204;2023-04-01T21:10:36;45.87;39.68;62.19;;
49215;Laerm;45943;53.148;8.204;2023-04-01T21:16:23;49.03;40.83;68.54;;
49215;Laerm;45943;53.148;8.204;2023-04-01T21:21:44;47.26;40.41;63.67;;
49215;Laerm;45943;53.148;8.204;2023-04-01T21:32:17;43.97;39.94;57.51;;
49215;Laerm;45943;53.148;8.204;2023-04-01T21:40:18;53.24;40.06;72.87;;
49215;Laerm;45943;53.148;8.204;2023-04-01T21:54:14;45.44;39.68;66.36;;
49215;Laerm;45943;53.148;8.204;2023-04-01T22:02:37;54.67;39.55;73.19;;
49215;Laerm;45943;53.148;8.204;2023-04-01T22:10:55;42.39;38.48;51.01;;
49215;Laerm;45943;53.148;8.204;2023-04-01T22:13:46;44.09;39.27;59.51;;
49215;Laerm;45943;53.148;8.204;2023-04-01T22:16:23;42.32;37.92;50.23;;
49215;Laerm;45943;53.148;8.204;2023-04-01T22:19:29;43.57;38.97;57.38;;